Saigon Express — VRBT7 — position and weather

sailwx.info

Track history (hours):
 
Tides and Currents Weather Stations Pressure Air Temp Water Temp Dewpoint Dewpoint Depression Visibility Wind Speed Wind Dir Waves Ship Positions

Saigon Express

Last reported at 2015-May-27 21:31 UTC. Time now 2015-May-27 22:05 UTC.
Position N 39°27' W 000°19'.

Length 260 m; draft 12 m.

Type: Ship (hazmat cat A). MMSI: 477106800.

Date/timePositionNaut miles runAvg speedWind from/ knotsBaromVisibWave heightAir tempDewpointWater temp
2015-May-27 21:31N 39°27' W 000°19'0 0.0
2015-May-27 20:28N 39°27' W 000°19'0 0.0
2015-May-27 19:31N 39°27' W 000°19'0 0.0
2015-May-27 18:31N 39°27' W 000°19'0 0.0
2015-May-27 17:31N 39°27' W 000°19'0 0.0
2015-May-27 16:22N 39°27' W 000°19'0 0.0
2015-May-27 15:31N 39°27' W 000°19'0 0.0
2015-May-27 14:28N 39°27' W 000°19'0 0.0
2015-May-27 13:28N 39°27' W 000°19'3 3.3
2015-May-27 12:34N 39°27' W 000°15'1 1.0
2015-May-27 11:33N 39°27' W 000°14'0 0.4
2015-May-27 10:34N 39°26' W 000°13'1 0.7
2015-May-27 09:26N 39°26' W 000°13'5 5.4
2015-May-27 08:33N 39°28' W 000°07'1 0.6
2015-May-27 07:26N 39°27' W 000°07'47 7.4
2015-May-27 01:09N 39°42' E 000°51'5 8.0
2015-May-27 00:33N 39°46' E 000°54'8 7.9
2015-May-26 23:32N 39°53' E 001°00'8 7.9
2015-May-26 22:33N 39°59' E 001°06'8 8.0
2015-May-26 21:33N 40°06' E 001°11'8 8.1
2015-May-26 20:33N 40°13' E 001°17'8 8.2
2015-May-26 19:33N 40°20' E 001°23'8 8.0
2015-May-26 18:33N 40°27' E 001°28'8 7.7
2015-May-26 17:33N 40°33' E 001°34'7 7.4
2015-May-26 16:33N 40°39' E 001°39'8 7.7
2015-May-26 15:33N 40°46' E 001°45'8 7.9
2015-May-26 14:33N 40°52' E 001°51'9 8.9
2015-May-26 13:33N 40°60' E 001°57'1211.0
2015-May-26 12:28N 41°10' E 002°05'1010.7
2015-May-26 11:33N 41°19' E 002°10'2 0.1
2015-May-25 23:22N 41°21' E 002°10'4 4.9
2015-May-25 22:33N 41°17' E 002°12'8 7.8
2015-May-25 21:33N 41°17' E 002°22'1515.2
2015-May-25 20:33N 41°21' E 002°42'2020.4
2015-May-25 19:33N 41°25' E 003°08'2120.6
2015-May-25 18:33N 41°29' E 003°35'14620.3
2015-May-25 11:20N 42°47' E 006°22'1620.6
2015-May-25 10:33N 42°56' E 006°41'2020.4
2015-May-25 09:33N 43°07' E 007°04'2020.1
2015-May-25 08:33N 43°18' E 007°27'2020.3
2015-May-25 07:33N 43°28' E 007°51'2120.5
2015-May-25 06:33N 43°43' E 008°10'2120.7
2015-May-25 05:33N 43°59' E 008°29'2019.9
2015-May-25 04:33N 44°18' E 008°38'10 9.5
2015-May-25 03:33N 44°25' E 008°47'0 0.0
2015-May-25 02:32N 44°25' E 008°47'0 0.0
2015-May-25 01:32N 44°25' E 008°47'0 0.0
2015-May-25 00:32N 44°25' E 008°47'0 0.0
2015-May-24 23:32N 44°25' E 008°47'0 0.0
2015-May-24 22:31N 44°25' E 008°47'0 0.0
2015-May-24 21:31N 44°25' E 008°47'0 0.0
2015-May-24 20:31N 44°25' E 008°47'0 0.0
2015-May-24 19:31N 44°25' E 008°47'0 0.0
2015-May-24 18:22N 44°25' E 008°47'0 0.0
2015-May-24 17:31N 44°25' E 008°47'0 0.0
2015-May-24 16:31N 44°25' E 008°47'0 0.0
2015-May-24 15:31N 44°25' E 008°47'0 0.0
2015-May-24 14:31N 44°25' E 008°47'0 0.0
2015-May-24 13:31N 44°25' E 008°47'0 0.0
2015-May-24 12:25N 44°25' E 008°47'0 0.0
2015-May-24 11:31N 44°25' E 008°47'0 0.0
2015-May-24 10:28N 44°25' E 008°47'0 0.0
2015-May-24 09:31N 44°25' E 008°47'0 0.0
2015-May-24 08:31N 44°25' E 008°47'0 0.0
2015-May-24 07:31N 44°25' E 008°47'0 0.0
2015-May-24 06:31N 44°25' E 008°47'0 0.0
2015-May-24 05:31N 44°25' E 008°47'0 0.0
2015-May-24 04:31N 44°25' E 008°47'0 0.0
2015-May-24 03:28N 44°25' E 008°47'0 0.0
2015-May-24 02:28N 44°25' E 008°47'0 0.0
2015-May-24 01:31N 44°25' E 008°47'0 0.0
2015-May-24 00:28N 44°25' E 008°47'0 0.0
2015-May-23 23:31N 44°25' E 008°47'2 1.6
2015-May-23 22:33N 44°25' E 008°45'7 7.3
2015-May-23 21:33N 44°18' E 008°41'1919.4
2015-May-23 20:34N 44°04' E 009°00'2020.3
2015-May-23 19:33N 43°51' E 009°21'2120.6
2015-May-23 18:34N 43°37' E 009°43'2019.6
2015-May-23 17:34N 43°30' E 010°08'9 8.5
2015-May-23 16:33N 43°34' E 010°18'0 0.1
2015-May-23 15:34N 43°34' E 010°18'0 0.0
2015-May-23 14:33N 43°34' E 010°18'0 0.0
2015-May-23 13:33N 43°34' E 010°18'0 0.0
2015-May-23 12:33N 43°34' E 010°18'0 0.0
2015-May-23 11:33N 43°34' E 010°18'0 0.0
2015-May-23 10:33N 43°34' E 010°18'0 0.0
2015-May-23 09:33N 43°34' E 010°18'0 0.0
2015-May-23 08:33N 43°34' E 010°18'0 0.0
2015-May-23 07:33N 43°34' E 010°18'0 0.0
2015-May-23 06:33N 43°34' E 010°18'0 0.0
2015-May-23 05:33N 43°34' E 010°18'0 0.0
2015-May-23 04:33N 43°34' E 010°18'0 0.0
2015-May-23 03:33N 43°34' E 010°18'0 0.0
2015-May-23 02:33N 43°34' E 010°18'0 0.0
2015-May-23 01:30N 43°34' E 010°18'0 0.0
2015-May-23 00:30N 43°34' E 010°18'0 0.0
2015-May-22 23:30N 43°34' E 010°18'0 0.0
2015-May-22 22:33N 43°34' E 010°18'0 0.0
2015-May-22 21:33N 43°34' E 010°18'0 0.0
2015-May-22 20:30N 43°34' E 010°18'0 0.0
2015-May-22 19:33N 43°34' E 010°18'0 0.0
2015-May-22 18:33N 43°34' E 010°18'0 0.0
2015-May-22 17:27N 43°34' E 010°18'3 2.9
2015-May-22 16:33N 43°32' E 010°17'6 5.9
2015-May-22 15:33N 43°28' E 010°11'1414.1
2015-May-22 14:33N 43°15' E 010°03'22320.1
2015-May-22 03:29N 39°33' E 009°51'2620.0
2015-May-22 02:11N 39°07' E 009°44'1218.7
2015-May-22 01:34N 38°59' E 009°33'1918.9
2015-May-22 00:33N 39°04' E 009°09'9 9.6
2015-May-21 23:33N 39°13' E 009°04'0 0.3
2015-May-21 22:31N 39°13' E 009°04'0 0.0
2015-May-21 21:31N 39°13' E 009°04'0 0.0
2015-May-21 20:31N 39°13' E 009°04'0 0.0
2015-May-21 19:31N 39°13' E 009°04'0 0.0
2015-May-21 18:31N 39°13' E 009°04'0 0.0
2015-May-21 17:31N 39°13' E 009°04'0 0.0
2015-May-21 16:31N 39°13' E 009°04'0 0.0
2015-May-21 15:31N 39°13' E 009°04'0 0.0
2015-May-21 14:31N 39°13' E 009°04'0 0.0
2015-May-21 13:31N 39°13' E 009°04'0 0.0
2015-May-21 12:31N 39°13' E 009°04'0 0.0
2015-May-21 11:31N 39°13' E 009°04'0 0.0
2015-May-21 10:31N 39°13' E 009°04'0 0.0
2015-May-21 09:31N 39°13' E 009°04'0 0.0
2015-May-21 08:31N 39°13' E 009°04'0 0.0
2015-May-21 07:31N 39°13' E 009°04'0 0.0
2015-May-21 06:31N 39°13' E 009°04'0 0.0
2015-May-21 05:31N 39°13' E 009°04'0 0.0
2015-May-21 04:31N 39°13' E 009°04'0 0.0
2015-May-21 03:31N 39°13' E 009°04'0 0.0
2015-May-21 02:31N 39°13' E 009°04'0 0.0
2015-May-21 01:31N 39°13' E 009°04'0 0.0
2015-May-21 00:31N 39°13' E 009°04'0 0.0
2015-May-20 23:31N 39°13' E 009°04'0 0.0
2015-May-20 22:31N 39°13' E 009°04'0 0.0
2015-May-20 21:31N 39°13' E 009°04'0 0.0
2015-May-20 20:31N 39°13' E 009°04'0 0.0
2015-May-20 19:31N 39°13' E 009°04'0 0.0
2015-May-20 18:31N 39°13' E 009°04'0 0.0
2015-May-20 17:31N 39°13' E 009°04'0 0.0
2015-May-20 16:31N 39°13' E 009°04'0 0.0
2015-May-20 15:31N 39°13' E 009°04'0 0.0
2015-May-20 14:33N 39°13' E 009°04'0 0.0
2015-May-20 13:33N 39°13' E 009°04'0 0.0
2015-May-20 12:33N 39°13' E 009°04'0 0.0
2015-May-20 11:33N 39°13' E 009°04'0 0.0
2015-May-20 10:33N 39°13' E 009°04'0 0.0
2015-May-20 09:33N 39°13' E 009°04'3 3.4
2015-May-20 08:32N 39°10' E 009°05'0 0.1
2015-May-20 07:32N 39°10' E 009°05'0 0.0
2015-May-20 06:32N 39°10' E 009°05'0 0.0
2015-May-20 05:32N 39°10' E 009°05'0 0.1
2015-May-20 04:32N 39°10' E 009°05'0 0.1
2015-May-20 03:32N 39°10' E 009°05'0 0.0
2015-May-20 02:32N 39°10' E 009°05'0 0.0
2015-May-20 01:32N 39°10' E 009°05'0 0.1
2015-May-20 00:32N 39°10' E 009°05'0 0.0
2015-May-19 23:32N 39°10' E 009°05'0 0.0
2015-May-19 22:32N 39°10' E 009°05'0 0.0
2015-May-19 21:32N 39°10' E 009°05'0 0.1
2015-May-19 20:32N 39°10' E 009°05'0 0.1
2015-May-19 19:32N 39°10' E 009°05'0 0.0
2015-May-19 18:32N 39°10' E 009°05'0 0.0
2015-May-19 17:32N 39°10' E 009°05'0 0.1
2015-May-19 16:33N 39°10' E 009°05'2 2.5
2015-May-19 15:33N 39°08' E 009°06'9 8.6
2015-May-19 14:33N 39°01' E 009°13'1616.1
2015-May-19 13:33N 38°48' E 009°25'1918.6
2015-May-19 12:34N 38°32' E 009°37'1919.1
2015-May-19 11:33N 38°15' E 009°49'1918.9
2015-May-19 10:33N 37°59' E 010°02'3819.1
2015-May-19 08:32N 37°40' E 010°44'5718.2
2015-May-19 05:24N 37°11' E 011°47'5117.9
2015-May-19 02:33N 36°53' E 012°46'1817.8
2015-May-19 01:33N 36°48' E 013°07'1817.6
2015-May-19 00:33N 36°42' E 013°28'1322.5
2015-May-19 00:00N 36°36' E 013°42'814.3 320 / 111015.0 5.4 0.522.018.921.0
2015-May-18 23:25N 36°37' E 013°52'1517.9
2015-May-18 22:33N 36°32' E 014°10'1818.2
2015-May-18 21:33N 36°26' E 014°32'1918.0
2015-May-18 20:32N 36°21' E 014°54'31519.2
2015-May-18 04:08N 34°44' E 021°03'1319.3
2015-May-18 03:28N 34°40' E 021°18'  
Track history (hours):
 
Tides and Currents Weather Stations Pressure Air Temp Water Temp Dewpoint Dewpoint Depression Visibility Wind Speed Wind Dir Waves Ship Positions

Saigon Express

Last reported at 2015-May-27 21:31 UTC. Time now 2015-May-27 22:05 UTC.
Position N 39°27' W 000°19'.

Length 260 m; draft 12 m.

Type: Ship (hazmat cat A). MMSI: 477106800.

Date/timePositionNaut miles runAvg speedWind from/ knotsBaromVisibWave heightAir tempDewpointWater temp
2015-May-27 21:31N 39°27' W 000°19'0 0.0
2015-May-27 20:28N 39°27' W 000°19'0 0.0
2015-May-27 19:31N 39°27' W 000°19'0 0.0
2015-May-27 18:31N 39°27' W 000°19'0 0.0
2015-May-27 17:31N 39°27' W 000°19'0 0.0
2015-May-27 16:22N 39°27' W 000°19'0 0.0
2015-May-27 15:31N 39°27' W 000°19'0 0.0
2015-May-27 14:28N 39°27' W 000°19'0 0.0
2015-May-27 13:28N 39°27' W 000°19'3 3.3
2015-May-27 12:34N 39°27' W 000°15'1 1.0
2015-May-27 11:33N 39°27' W 000°14'0 0.4
2015-May-27 10:34N 39°26' W 000°13'1 0.7
2015-May-27 09:26N 39°26' W 000°13'5 5.4
2015-May-27 08:33N 39°28' W 000°07'1 0.6
2015-May-27 07:26N 39°27' W 000°07'47 7.4
2015-May-27 01:09N 39°42' E 000°51'5 8.0
2015-May-27 00:33N 39°46' E 000°54'8 7.9
2015-May-26 23:32N 39°53' E 001°00'8 7.9
2015-May-26 22:33N 39°59' E 001°06'8 8.0
2015-May-26 21:33N 40°06' E 001°11'8 8.1
2015-May-26 20:33N 40°13' E 001°17'8 8.2
2015-May-26 19:33N 40°20' E 001°23'8 8.0
2015-May-26 18:33N 40°27' E 001°28'8 7.7
2015-May-26 17:33N 40°33' E 001°34'7 7.4
2015-May-26 16:33N 40°39' E 001°39'8 7.7
2015-May-26 15:33N 40°46' E 001°45'8 7.9
2015-May-26 14:33N 40°52' E 001°51'9 8.9
2015-May-26 13:33N 40°60' E 001°57'1211.0
2015-May-26 12:28N 41°10' E 002°05'1010.7
2015-May-26 11:33N 41°19' E 002°10'2 0.1
2015-May-25 23:22N 41°21' E 002°10'4 4.9
2015-May-25 22:33N 41°17' E 002°12'8 7.8
2015-May-25 21:33N 41°17' E 002°22'1515.2
2015-May-25 20:33N 41°21' E 002°42'2020.4
2015-May-25 19:33N 41°25' E 003°08'2120.6
2015-May-25 18:33N 41°29' E 003°35'14620.3
2015-May-25 11:20N 42°47' E 006°22'1620.6
2015-May-25 10:33N 42°56' E 006°41'2020.4
2015-May-25 09:33N 43°07' E 007°04'2020.1
2015-May-25 08:33N 43°18' E 007°27'2020.3
2015-May-25 07:33N 43°28' E 007°51'2120.5
2015-May-25 06:33N 43°43' E 008°10'2120.7
2015-May-25 05:33N 43°59' E 008°29'2019.9
2015-May-25 04:33N 44°18' E 008°38'10 9.5
2015-May-25 03:33N 44°25' E 008°47'0 0.0
2015-May-25 02:32N 44°25' E 008°47'0 0.0
2015-May-25 01:32N 44°25' E 008°47'0 0.0
2015-May-25 00:32N 44°25' E 008°47'0 0.0
2015-May-24 23:32N 44°25' E 008°47'0 0.0
2015-May-24 22:31N 44°25' E 008°47'0 0.0
2015-May-24 21:31N 44°25' E 008°47'0 0.0
2015-May-24 20:31N 44°25' E 008°47'0 0.0
2015-May-24 19:31N 44°25' E 008°47'0 0.0
2015-May-24 18:22N 44°25' E 008°47'0 0.0
2015-May-24 17:31N 44°25' E 008°47'0 0.0
2015-May-24 16:31N 44°25' E 008°47'0 0.0
2015-May-24 15:31N 44°25' E 008°47'0 0.0
2015-May-24 14:31N 44°25' E 008°47'0 0.0
2015-May-24 13:31N 44°25' E 008°47'0 0.0
2015-May-24 12:25N 44°25' E 008°47'0 0.0
2015-May-24 11:31N 44°25' E 008°47'0 0.0
2015-May-24 10:28N 44°25' E 008°47'0 0.0
2015-May-24 09:31N 44°25' E 008°47'0 0.0
2015-May-24 08:31N 44°25' E 008°47'0 0.0
2015-May-24 07:31N 44°25' E 008°47'0 0.0
2015-May-24 06:31N 44°25' E 008°47'0 0.0
2015-May-24 05:31N 44°25' E 008°47'0 0.0
2015-May-24 04:31N 44°25' E 008°47'0 0.0
2015-May-24 03:28N 44°25' E 008°47'0 0.0
2015-May-24 02:28N 44°25' E 008°47'0 0.0
2015-May-24 01:31N 44°25' E 008°47'0 0.0
2015-May-24 00:28N 44°25' E 008°47'0 0.0
2015-May-23 23:31N 44°25' E 008°47'2 1.6
2015-May-23 22:33N 44°25' E 008°45'7 7.3
2015-May-23 21:33N 44°18' E 008°41'1919.4
2015-May-23 20:34N 44°04' E 009°00'2020.3
2015-May-23 19:33N 43°51' E 009°21'2120.6
2015-May-23 18:34N 43°37' E 009°43'2019.6
2015-May-23 17:34N 43°30' E 010°08'9 8.5
2015-May-23 16:33N 43°34' E 010°18'0 0.1
2015-May-23 15:34N 43°34' E 010°18'0 0.0
2015-May-23 14:33N 43°34' E 010°18'0 0.0
2015-May-23 13:33N 43°34' E 010°18'0 0.0
2015-May-23 12:33N 43°34' E 010°18'0 0.0
2015-May-23 11:33N 43°34' E 010°18'0 0.0
2015-May-23 10:33N 43°34' E 010°18'0 0.0
2015-May-23 09:33N 43°34' E 010°18'0 0.0
2015-May-23 08:33N 43°34' E 010°18'0 0.0
2015-May-23 07:33N 43°34' E 010°18'0 0.0
2015-May-23 06:33N 43°34' E 010°18'0 0.0
2015-May-23 05:33N 43°34' E 010°18'0 0.0
2015-May-23 04:33N 43°34' E 010°18'0 0.0
2015-May-23 03:33N 43°34' E 010°18'0 0.0
2015-May-23 02:33N 43°34' E 010°18'0 0.0
2015-May-23 01:30N 43°34' E 010°18'0 0.0
2015-May-23 00:30N 43°34' E 010°18'0 0.0
2015-May-22 23:30N 43°34' E 010°18'0 0.0
2015-May-22 22:33N 43°34' E 010°18'0 0.0
2015-May-22 21:33N 43°34' E 010°18'0 0.0
2015-May-22 20:30N 43°34' E 010°18'0 0.0
2015-May-22 19:33N 43°34' E 010°18'0 0.0
2015-May-22 18:33N 43°34' E 010°18'0 0.0
2015-May-22 17:27N 43°34' E 010°18'3 2.9
2015-May-22 16:33N 43°32' E 010°17'6 5.9
2015-May-22 15:33N 43°28' E 010°11'1414.1
2015-May-22 14:33N 43°15' E 010°03'22320.1
2015-May-22 03:29N 39°33' E 009°51'2620.0
2015-May-22 02:11N 39°07' E 009°44'1218.7
2015-May-22 01:34N 38°59' E 009°33'1918.9
2015-May-22 00:33N 39°04' E 009°09'9 9.6
2015-May-21 23:33N 39°13' E 009°04'0 0.3
2015-May-21 22:31N 39°13' E 009°04'0 0.0
2015-May-21 21:31N 39°13' E 009°04'0 0.0
2015-May-21 20:31N 39°13' E 009°04'0 0.0
2015-May-21 19:31N 39°13' E 009°04'0 0.0
2015-May-21 18:31N 39°13' E 009°04'0 0.0
2015-May-21 17:31N 39°13' E 009°04'0 0.0
2015-May-21 16:31N 39°13' E 009°04'0 0.0
2015-May-21 15:31N 39°13' E 009°04'0 0.0
2015-May-21 14:31N 39°13' E 009°04'0 0.0
2015-May-21 13:31N 39°13' E 009°04'0 0.0
2015-May-21 12:31N 39°13' E 009°04'0 0.0
2015-May-21 11:31N 39°13' E 009°04'0 0.0
2015-May-21 10:31N 39°13' E 009°04'0 0.0
2015-May-21 09:31N 39°13' E 009°04'0 0.0
2015-May-21 08:31N 39°13' E 009°04'0 0.0
2015-May-21 07:31N 39°13' E 009°04'0 0.0
2015-May-21 06:31N 39°13' E 009°04'0 0.0
2015-May-21 05:31N 39°13' E 009°04'0 0.0
2015-May-21 04:31N 39°13' E 009°04'0 0.0
2015-May-21 03:31N 39°13' E 009°04'0 0.0
2015-May-21 02:31N 39°13' E 009°04'0 0.0
2015-May-21 01:31N 39°13' E 009°04'0 0.0
2015-May-21 00:31N 39°13' E 009°04'0 0.0
2015-May-20 23:31N 39°13' E 009°04'0 0.0
2015-May-20 22:31N 39°13' E 009°04'0 0.0
2015-May-20 21:31N 39°13' E 009°04'0 0.0
2015-May-20 20:31N 39°13' E 009°04'0 0.0
2015-May-20 19:31N 39°13' E 009°04'0 0.0
2015-May-20 18:31N 39°13' E 009°04'0 0.0
2015-May-20 17:31N 39°13' E 009°04'0 0.0
2015-May-20 16:31N 39°13' E 009°04'0 0.0
2015-May-20 15:31N 39°13' E 009°04'0 0.0
2015-May-20 14:33N 39°13' E 009°04'0 0.0
2015-May-20 13:33N 39°13' E 009°04'0 0.0
2015-May-20 12:33N 39°13' E 009°04'0 0.0
2015-May-20 11:33N 39°13' E 009°04'0 0.0
2015-May-20 10:33N 39°13' E 009°04'0 0.0
2015-May-20 09:33N 39°13' E 009°04'3 3.4
2015-May-20 08:32N 39°10' E 009°05'0 0.1
2015-May-20 07:32N 39°10' E 009°05'0 0.0
2015-May-20 06:32N 39°10' E 009°05'0 0.0
2015-May-20 05:32N 39°10' E 009°05'0 0.1
2015-May-20 04:32N 39°10' E 009°05'0 0.1
2015-May-20 03:32N 39°10' E 009°05'0 0.0
2015-May-20 02:32N 39°10' E 009°05'0 0.0
2015-May-20 01:32N 39°10' E 009°05'0 0.1
2015-May-20 00:32N 39°10' E 009°05'0 0.0
2015-May-19 23:32N 39°10' E 009°05'0 0.0
2015-May-19 22:32N 39°10' E 009°05'0 0.0
2015-May-19 21:32N 39°10' E 009°05'0 0.1
2015-May-19 20:32N 39°10' E 009°05'0 0.1
2015-May-19 19:32N 39°10' E 009°05'0 0.0
2015-May-19 18:32N 39°10' E 009°05'0 0.0
2015-May-19 17:32N 39°10' E 009°05'0 0.1
2015-May-19 16:33N 39°10' E 009°05'2 2.5
2015-May-19 15:33N 39°08' E 009°06'9 8.6
2015-May-19 14:33N 39°01' E 009°13'1616.1
2015-May-19 13:33N 38°48' E 009°25'1918.6
2015-May-19 12:34N 38°32' E 009°37'1919.1
2015-May-19 11:33N 38°15' E 009°49'1918.9
2015-May-19 10:33N 37°59' E 010°02'3819.1
2015-May-19 08:32N 37°40' E 010°44'5718.2
2015-May-19 05:24N 37°11' E 011°47'5117.9
2015-May-19 02:33N 36°53' E 012°46'1817.8
2015-May-19 01:33N 36°48' E 013°07'1817.6
2015-May-19 00:33N 36°42' E 013°28'1322.5
2015-May-19 00:00N 36°36' E 013°42'814.3 320 / 111015.0 5.4 0.522.018.921.0
2015-May-18 23:25N 36°37' E 013°52'1517.9
2015-May-18 22:33N 36°32' E 014°10'1818.2
2015-May-18 21:33N 36°26' E 014°32'1918.0
2015-May-18 20:32N 36°21' E 014°54'31519.2
2015-May-18 04:08N 34°44' E 021°03'1319.3
2015-May-18 03:28N 34°40' E 021°18'  

Dump ship's entire track history